New Orleans NAS, Louisiana
Current Conditions -  °F | °C
As of 1:55 PM on Thursday 23 Oct 2014 (Local Time) from KNBG Reporting Station
Scattered Clouds Scattered Clouds  
Wind Chill: 23°   Ceiling: Unl
Heat Index: 23°   Visibility: 10mi
Dew Point:   Wind: 8mph
Humidity: 35%   Direction: 80°E
Pressure: 30.05"   Gusts: NA
Location:  29.83°N, 90.02°W
Report Text: KNBG 231855Z 08007KT 10SM SCT250 23/07 A3005 RMK AO2 SLP174 T02330072 $
Loading
Personal Weather Stations






























Interactive Weather Map
Tropical Storm Tracking
New forecast layout! Learn more

10-Day Weather Forecast

Advertisements
Track Severe Weather on mobile